Time;durP1;ratioP1;P1;durP2;ratioP2;P2;SDS_P1;SDS_P2;PMS_P1;PMS_P2;Temp;Humidity;BMP_temperature;BMP_pressure;BME280_temperature;BME280_humidity;BME280_pressure;Samples;Min_cycle;Max_cycle;Signal;HPM_P1;HPM_P2
2021/08/08 00:01:06;;;;;;;6.75;4.07;;;15.80;99.90;;;;;;5034876;28;20061;-65
2021/08/08 00:03:31;;;;;;;5.68;3.40;;;15.80;99.90;;;;;;5035181;28;20024;-64
2021/08/08 00:05:57;;;;;;;6.45;3.65;;;15.80;99.90;;;;;;5035182;28;20026;-65
2021/08/08 00:08:25;;;;;;;6.88;4.72;;;15.80;99.90;;;;;;5034911;28;20017;-65
2021/08/08 00:10:51;;;;;;;10.98;4.32;;;15.80;99.90;;;;;;5033606;28;20025;-65
2021/08/08 00:13:17;;;;;;;8.38;4.32;;;15.80;99.90;;;;;;5033799;28;20075;-65
2021/08/08 00:15:42;;;;;;;8.65;4.40;;;15.70;99.90;;;;;;5034547;28;20430;-65
2021/08/08 00:18:08;;;;;;;6.78;4.90;;;15.70;99.90;;;;;;5035317;28;20095;-65
2021/08/08 00:20:34;;;;;;;7.97;4.40;;;15.70;99.90;;;;;;5034783;28;20504;-65
2021/08/08 00:23:00;;;;;;;10.63;4.90;;;15.70;99.90;;;;;;5035190;28;20048;-65
2021/08/08 00:25:26;;;;;;;8.65;4.75;;;15.70;99.90;;;;;;5034957;28;20101;-65
2021/08/08 00:27:52;;;;;;;8.25;5.20;;;15.70;99.90;;;;;;5034691;28;20018;-65
2021/08/08 00:30:18;;;;;;;6.07;4.80;;;15.70;99.90;;;;;;5034440;28;20029;-65
2021/08/08 00:32:43;;;;;;;10.93;5.90;;;15.70;99.90;;;;;;5034761;28;20017;-66
2021/08/08 00:35:10;;;;;;;10.40;5.90;;;15.70;99.90;;;;;;5034639;28;20393;-65
2021/08/08 00:37:37;;;;;;;9.73;5.22;;;15.70;99.90;;;;;;5033378;28;20133;-65
2021/08/08 00:40:04;;;;;;;8.13;5.57;;;15.70;99.90;;;;;;5034211;28;20167;-65
2021/08/08 00:42:29;;;;;;;11.57;5.78;;;15.60;99.90;;;;;;5034420;28;20032;-65
2021/08/08 00:44:55;;;;;;;10.93;6.65;;;15.50;99.90;;;;;;5034419;28;20029;-66
2021/08/08 00:47:20;;;;;;;11.85;7.25;;;15.50;99.90;;;;;;5030195;28;20022;-66
2021/08/08 00:49:46;;;;;;;10.07;6.75;;;15.50;99.90;;;;;;5033174;28;20052;-66
2021/08/08 00:52:11;;;;;;;10.95;7.38;;;15.40;99.90;;;;;;5033038;28;20082;-66
2021/08/08 00:54:37;;;;;;;8.38;6.63;;;15.40;99.90;;;;;;5033040;28;20488;-66
2021/08/08 00:57:03;;;;;;;11.02;7.65;;;15.40;99.90;;;;;;5032790;28;20500;-66
2021/08/08 00:59:29;;;;;;;14.43;8.02;;;15.40;99.90;;;;;;5034087;28;20083;-65
2021/08/08 01:01:55;;;;;;;12.88;7.97;;;15.40;99.90;;;;;;5033960;28;20029;-66
2021/08/08 01:04:29;;;;;;;10.07;8.57;;;15.40;99.90;;;;;;5033951;28;20104;-66
2021/08/08 01:07:01;;;;;;;12.88;8.48;;;15.40;99.90;;;;;;5034098;28;20045;-66
2021/08/08 01:09:29;;;;;;;10.90;8.10;;;15.40;99.90;;;;;;5034159;28;20565;-66
2021/08/08 01:11:56;;;;;;;12.40;8.38;;;15.40;99.90;;;;;;5033595;28;20040;-66
2021/08/08 01:14:22;;;;;;;14.90;9.07;;;15.40;99.90;;;;;;5033824;28;20025;-65
2021/08/08 01:16:49;;;;;;;11.57;9.02;;;15.30;99.90;;;;;;5032609;28;20036;-65
2021/08/08 01:19:18;;;;;;;14.75;9.40;;;15.40;99.90;;;;;;5034002;28;20022;-65
2021/08/08 01:21:47;;;;;;;17.70;9.80;;;15.40;99.90;;;;;;5029675;28;20025;-65
2021/08/08 01:24:12;;;;;;;17.30;9.07;;;15.40;99.90;;;;;;5032163;28;20148;-66
2021/08/08 01:26:40;;;;;;;15.75;8.73;;;15.30;99.90;;;;;;5032215;28;20116;-65
2021/08/08 01:29:07;;;;;;;15.40;9.40;;;15.40;99.90;;;;;;5033585;28;20401;-66
2021/08/08 01:31:32;;;;;;;17.25;9.88;;;15.40;99.90;;;;;;5033539;28;20535;-66
2021/08/08 01:33:58;;;;;;;17.35;9.55;;;15.40;99.90;;;;;;5032166;28;20045;-66
2021/08/08 01:36:24;;;;;;;14.65;9.63;;;15.40;99.90;;;;;;5033511;28;20021;-66
2021/08/08 01:39:02;;;;;;;18.38;8.98;;;15.40;99.90;;;;;;5033455;28;20048;-66
2021/08/08 01:41:44;;;;;;;20.17;8.90;;;15.40;99.90;;;;;;5030968;28;20600;-66
2021/08/08 01:44:11;;;;;;;26.58;10.90;;;15.30;99.90;;;;;;5031124;28;20029;-65
2021/08/08 01:46:38;;;;;;;19.35;10.40;;;15.30;99.90;;;;;;5032145;28;20037;-66
2021/08/08 01:49:07;;;;;;;16.42;9.63;;;15.30;99.90;;;;;;5033211;28;20052;-65
2021/08/08 01:51:33;;;;;;;18.13;9.55;;;15.30;99.90;;;;;;5035741;28;20120;-65
2021/08/08 01:53:58;;;;;;;20.65;10.60;;;15.30;99.90;;;;;;5033193;28;20071;-65
2021/08/08 01:56:24;;;;;;;16.77;9.40;;;15.30;99.90;;;;;;5033040;28;20018;-65
2021/08/08 01:58:50;;;;;;;19.38;9.63;;;15.30;99.90;;;;;;5032467;28;20025;-65
2021/08/08 02:01:15;;;;;;;17.00;10.18;;;15.30;99.90;;;;;;5032866;28;20028;-65
2021/08/08 02:03:41;;;;;;;16.30;9.52;;;15.30;99.90;;;;;;5032839;28;20121;-65
2021/08/08 02:06:08;;;;;;;13.60;9.70;;;15.30;99.90;;;;;;5032724;28;20030;-65
2021/08/08 02:08:35;;;;;;;16.38;9.57;;;15.30;99.90;;;;;;5033091;28;20025;-65
2021/08/08 02:11:01;;;;;;;16.95;10.07;;;15.30;99.90;;;;;;5032771;28;20230;-65
2021/08/08 02:13:27;;;;;;;22.50;11.15;;;15.30;99.90;;;;;;5030217;28;20492;-65
2021/08/08 02:15:52;;;;;;;19.08;9.20;;;15.30;99.90;;;;;;5032695;28;20504;-65
2021/08/08 02:18:19;;;;;;;17.67;10.38;;;15.30;99.90;;;;;;5032185;28;20033;-65
2021/08/08 02:20:45;;;;;;;17.02;10.00;;;15.30;99.90;;;;;;5031618;28;20488;-65
2021/08/08 02:23:11;;;;;;;22.00;9.50;;;15.20;99.90;;;;;;5031893;28;20026;-65
2021/08/08 02:25:37;;;;;;;21.15;9.60;;;15.30;99.90;;;;;;5030496;28;20028;-65
2021/08/08 02:28:03;;;;;;;15.75;9.35;;;15.20;99.90;;;;;;5030485;28;20013;-65
2021/08/08 02:30:28;;;;;;;15.95;8.93;;;15.30;99.90;;;;;;5032152;28;20120;-65
2021/08/08 02:32:54;;;;;;;17.55;8.75;;;15.30;99.90;;;;;;5032412;28;20032;-65
2021/08/08 02:35:19;;;;;;;17.25;8.15;;;15.30;99.90;;;;;;5032311;28;20021;-65
2021/08/08 02:37:45;;;;;;;19.40;8.27;;;15.30;99.90;;;;;;5032254;28;20491;-65
2021/08/08 02:40:10;;;;;;;19.08;8.43;;;15.30;99.90;;;;;;5032156;28;20651;-65
2021/08/08 02:42:36;;;;;;;15.73;7.88;;;15.30;99.90;;;;;;5032206;28;20485;-65
2021/08/08 02:45:02;;;;;;;14.60;7.40;;;15.40;99.90;;;;;;5031938;28;20053;-65
2021/08/08 02:47:30;;;;;;;19.27;7.93;;;15.40;99.90;;;;;;5032020;28;20021;-65
2021/08/08 02:49:56;;;;;;;23.52;8.40;;;15.40;99.90;;;;;;5032124;28;20021;-65
2021/08/08 02:52:21;;;;;;;18.10;7.28;;;15.40;99.90;;;;;;5031971;28;20031;-65
2021/08/08 02:54:47;;;;;;;16.05;7.15;;;15.40;99.90;;;;;;5030778;28;20021;-65
2021/08/08 02:57:12;;;;;;;18.83;6.38;;;15.50;99.90;;;;;;5032064;28;20021;-65
2021/08/08 02:59:38;;;;;;;15.98;6.45;;;15.50;99.90;;;;;;5031847;28;20029;-65
2021/08/08 03:02:03;;;;;;;16.10;6.50;;;15.50;99.90;;;;;;5030373;28;20136;-66
2021/08/08 03:04:29;;;;;;;13.90;6.80;;;15.50;99.90;;;;;;5031966;28;20104;-66
2021/08/08 03:06:55;;;;;;;19.75;6.43;;;15.50;99.90;;;;;;5030653;28;20013;-66
2021/08/08 03:09:20;;;;;;;17.02;6.40;;;15.50;99.90;;;;;;5031944;28;20024;-65
2021/08/08 03:11:46;;;;;;;16.48;6.13;;;15.50;99.90;;;;;;5030672;28;20092;-66
2021/08/08 03:14:14;;;;;;;16.25;5.50;;;15.50;99.90;;;;;;5031780;28;20030;-66
2021/08/08 03:16:41;;;;;;;17.15;5.55;;;15.50;99.90;;;;;;5031992;28;20049;-65
2021/08/08 03:19:07;;;;;;;17.88;6.03;;;15.50;99.90;;;;;;5046927;28;20025;-65
2021/08/08 03:21:32;;;;;;;12.85;4.65;;;15.50;99.90;;;;;;5031751;28;20381;-65
2021/08/08 03:23:58;;;;;;;20.38;6.38;;;15.50;99.90;;;;;;5031746;28;20040;-66
2021/08/08 03:26:23;;;;;;;11.93;4.95;;;15.50;99.90;;;;;;5031687;28;20025;-65
2021/08/08 03:28:49;;;;;;;20.05;4.90;;;15.50;99.90;;;;;;5030475;28;20021;-66
2021/08/08 03:31:15;;;;;;;20.95;5.78;;;15.50;99.90;;;;;;5031524;28;20046;-66
2021/08/08 03:33:40;;;;;;;16.73;5.30;;;15.60;99.90;;;;;;5031622;28;20492;-65
2021/08/08 03:36:06;;;;;;;18.10;5.65;;;15.60;99.90;;;;;;5031566;28;20030;-65
2021/08/08 03:38:31;;;;;;;14.65;4.63;;;15.60;99.90;;;;;;5031526;28;20041;-65
2021/08/08 03:40:57;;;;;;;12.52;4.32;;;15.60;99.90;;;;;;5031694;28;20021;-66
2021/08/08 03:43:22;;;;;;;11.45;4.50;;;15.60;99.90;;;;;;5031567;28;20111;-66
2021/08/08 03:45:48;;;;;;;13.63;4.10;;;15.60;99.90;;;;;;5031442;28;20112;-66
2021/08/08 03:48:13;;;;;;;14.13;4.43;;;15.60;99.90;;;;;;5031498;28;20021;-66
2021/08/08 03:50:39;;;;;;;12.45;4.65;;;15.60;99.90;;;;;;5030447;28;20068;-65
2021/08/08 03:53:06;;;;;;;14.18;5.20;;;15.70;99.90;;;;;;5029967;28;20018;-66
2021/08/08 03:55:31;;;;;;;12.65;4.53;;;15.70;99.90;;;;;;5031564;28;20017;-66
2021/08/08 03:57:57;;;;;;;12.45;5.15;;;15.70;99.90;;;;;;5031502;28;20108;-66
2021/08/08 04:00:23;;;;;;;15.02;5.03;;;15.70;99.90;;;;;;5031082;28;20029;-66
2021/08/08 04:02:48;;;;;;;11.35;4.75;;;15.70;99.90;;;;;;5031693;28;20034;-65
2021/08/08 04:05:14;;;;;;;14.45;5.40;;;15.70;99.90;;;;;;5031276;28;20022;-66
2021/08/08 04:07:39;;;;;;;14.98;4.82;;;15.70;99.90;;;;;;5030344;28;20100;-65
2021/08/08 04:10:05;;;;;;;14.32;4.57;;;15.70;99.90;;;;;;5031114;28;20037;-66
2021/08/08 04:12:31;;;;;;;16.42;4.93;;;15.70;99.90;;;;;;5031367;28;20022;-66
2021/08/08 04:14:57;;;;;;;12.77;4.50;;;15.70;99.90;;;;;;5031408;28;20501;-66
2021/08/08 04:17:22;;;;;;;15.35;4.18;;;15.70;99.90;;;;;;5030901;28;20516;-66
2021/08/08 04:19:48;;;;;;;10.10;4.60;;;15.70;99.90;;;;;;5031331;28;20029;-65
2021/08/08 04:22:13;;;;;;;9.80;4.00;;;15.70;99.90;;;;;;5031967;28;20018;-65
2021/08/08 04:24:39;;;;;;;14.13;4.90;;;15.70;99.90;;;;;;5034803;28;20447;-65
2021/08/08 04:27:04;;;;;;;12.02;4.32;;;15.70;99.90;;;;;;5034505;28;20022;-66
2021/08/08 04:29:30;;;;;;;14.85;4.20;;;15.70;99.90;;;;;;5034730;28;20033;-65
2021/08/08 04:31:55;;;;;;;11.48;4.13;;;15.70;99.90;;;;;;5034603;28;20029;-66
2021/08/08 04:34:21;;;;;;;14.32;5.22;;;15.70;99.90;;;;;;5033305;28;20037;-66
2021/08/08 04:36:46;;;;;;;8.43;4.03;;;15.70;99.90;;;;;;5033409;28;20385;-65
2021/08/08 04:39:12;;;;;;;13.68;4.75;;;15.70;99.90;;;;;;5034375;28;20124;-65
2021/08/08 04:41:37;;;;;;;12.32;4.28;;;15.70;99.90;;;;;;5033285;28;20080;-66
2021/08/08 04:44:03;;;;;;;10.65;3.70;;;15.70;99.90;;;;;;5034265;28;20025;-66
2021/08/08 04:46:29;;;;;;;14.63;4.93;;;15.70;99.90;;;;;;5034348;28;20108;-66
2021/08/08 04:48:54;;;;;;;12.32;4.07;;;15.70;99.90;;;;;;5034336;28;20116;-65
2021/08/08 04:51:19;;;;;;;11.27;4.07;;;15.70;99.90;;;;;;5033123;28;20036;-65
2021/08/08 04:53:45;;;;;;;12.63;4.65;;;15.70;99.90;;;;;;5034232;28;20029;-66
2021/08/08 04:56:11;;;;;;;12.68;3.85;;;15.70;99.90;;;;;;5034240;28;20029;-66
2021/08/08 04:58:36;;;;;;;11.75;3.97;;;15.70;99.90;;;;;;5034375;28;20024;-65
2021/08/08 05:01:02;;;;;;;11.07;4.00;;;15.80;99.90;;;;;;5032813;28;20029;-66
2021/08/08 05:03:27;;;;;;;11.02;3.65;;;15.70;99.90;;;;;;5033758;28;20069;-66
2021/08/08 05:06:09;;;;;;;11.18;4.38;;;15.70;99.90;;;;;;5034181;28;20469;-65
2021/08/08 05:08:34;;;;;;;12.45;3.78;;;15.80;99.90;;;;;;5034092;28;20033;-65
2021/08/08 05:11:00;;;;;;;10.15;3.25;;;15.80;99.90;;;;;;5033065;28;20382;-65
2021/08/08 05:13:28;;;;;;;11.75;3.83;;;15.80;99.90;;;;;;5021880;28;20022;-66
2021/08/08 05:15:54;;;;;;;9.00;3.53;;;15.80;99.90;;;;;;5032035;28;20438;-66
2021/08/08 05:18:19;;;;;;;15.27;4.13;;;15.80;99.90;;;;;;5033449;28;20049;-66
2021/08/08 05:20:45;;;;;;;9.32;3.80;;;15.80;99.90;;;;;;5034629;28;20034;-65
2021/08/08 05:23:10;;;;;;;16.83;3.85;;;15.80;99.90;;;;;;5034705;28;20056;-65
2021/08/08 05:25:36;;;;;;;19.33;5.07;;;15.80;99.90;;;;;;5033402;28;20026;-66
2021/08/08 05:28:02;;;;;;;14.32;4.03;;;15.90;99.90;;;;;;5034471;28;20075;-66
2021/08/08 05:30:28;;;;;;;14.93;3.58;;;15.80;99.90;;;;;;5034297;28;20088;-66
2021/08/08 05:32:53;;;;;;;9.60;3.30;;;15.90;99.90;;;;;;5034217;28;20030;-66
2021/08/08 05:35:19;;;;;;;10.77;3.28;;;15.90;99.90;;;;;;5033532;28;20441;-66
2021/08/08 05:37:44;;;;;;;7.45;3.00;;;15.90;99.90;;;;;;5033870;28;20064;-66
2021/08/08 05:40:11;;;;;;;10.85;3.60;;;15.90;99.90;;;;;;5033518;28;20045;-65
2021/08/08 05:42:37;;;;;;;12.00;3.63;;;16.00;99.90;;;;;;5034473;28;20091;-65
2021/08/08 05:45:04;;;;;;;13.55;3.63;;;16.00;99.90;;;;;;5032792;28;20017;-66
2021/08/08 05:47:30;;;;;;;11.65;4.25;;;16.00;99.90;;;;;;5034091;28;20469;-66
2021/08/08 05:49:56;;;;;;;13.13;3.60;;;16.00;99.90;;;;;;5034136;28;20033;-66
2021/08/08 05:52:21;;;;;;;11.75;3.50;;;16.10;99.90;;;;;;5034133;28;20393;-66
2021/08/08 05:54:47;;;;;;;15.32;4.15;;;16.10;99.90;;;;;;5034140;28;20029;-66
2021/08/08 05:57:12;;;;;;;12.38;3.50;;;16.10;99.90;;;;;;5033954;28;20033;-66
2021/08/08 05:59:38;;;;;;;10.98;3.42;;;16.10;99.90;;;;;;5033912;28;20104;-66
2021/08/08 06:02:03;;;;;;;13.05;3.97;;;16.10;99.90;;;;;;5032509;28;20051;-66
2021/08/08 06:04:29;;;;;;;12.00;3.72;;;16.10;99.90;;;;;;5033752;28;20033;-66
2021/08/08 06:06:54;;;;;;;11.00;4.03;;;16.10;99.90;;;;;;5033354;28;20036;-66
2021/08/08 06:09:20;;;;;;;13.55;4.63;;;16.10;99.90;;;;;;5033568;28;20477;-66
2021/08/08 06:11:45;;;;;;;13.32;3.30;;;16.10;99.90;;;;;;5033781;28;20091;-66
2021/08/08 06:14:11;;;;;;;14.88;3.90;;;16.10;99.80;;;;;;5032594;28;20610;-66
2021/08/08 06:16:36;;;;;;;12.18;3.35;;;16.10;99.80;;;;;;5026644;28;20083;-65
2021/08/08 06:19:02;;;;;;;11.00;3.38;;;16.20;99.90;;;;;;5033027;28;20028;-66
2021/08/08 06:21:28;;;;;;;15.98;4.00;;;16.30;99.90;;;;;;5033336;28;20112;-66
2021/08/08 06:23:53;;;;;;;11.82;3.60;;;16.30;99.80;;;;;;5031625;28;20014;-66
2021/08/08 06:26:19;;;;;;;8.98;2.80;;;16.40;99.60;;;;;;5032659;28;20059;-66
2021/08/08 06:28:45;;;;;;;13.82;3.80;;;16.40;99.50;;;;;;5032657;28;20017;-66
2021/08/08 06:31:10;;;;;;;14.25;3.45;;;16.50;99.70;;;;;;5032625;28;20497;-66
2021/08/08 06:33:36;;;;;;;10.95;3.38;;;16.50;99.20;;;;;;5032567;28;20033;-66
2021/08/08 06:36:46;;;;;;;;;;;;;;;;;;;;;
2021/08/08 06:39:08;;;;;;;13.43;3.20;;;16.50;98.80;;;;;;5031907;28;20496;-65
2021/08/08 06:41:34;;;;;;;12.43;3.63;;;16.60;98.60;;;;;;5032533;28;20029;-66
2021/08/08 06:44:00;;;;;;;12.75;3.45;;;16.60;98.40;;;;;;5032423;28;20028;-66
2021/08/08 06:46:26;;;;;;;11.93;3.85;;;16.60;98.30;;;;;;5032215;28;20040;-65
2021/08/08 06:49:19;;;;;;;14.50;3.55;;;16.70;98.10;;;;;;5030857;28;20021;-66
2021/08/08 06:59:30;;;;;;;12.27;4.28;;;16.70;97.60;;;;;;5032790;28;20025;-66
2021/08/08 07:01:57;;;;;;;16.02;3.95;;;16.70;97.60;;;;;;5025177;28;20034;-66
2021/08/08 07:05:08;;;;;;;14.13;3.35;;;16.60;97.60;;;;;;5031922;28;20021;-65
2021/08/08 07:07:34;;;;;;;14.43;3.95;;;16.60;97.20;;;;;;5020579;28;20375;-66
2021/08/08 07:09:59;;;;;;;13.95;3.72;;;16.60;97.30;;;;;;5031982;28;20500;-65
2021/08/08 07:12:25;;;;;;;15.32;3.63;;;16.60;97.30;;;;;;5032014;28;20021;-66
2021/08/08 07:14:51;;;;;;;14.35;3.28;;;16.70;97.20;;;;;;5032075;28;20512;-66
2021/08/08 07:17:16;;;;;;;15.15;3.13;;;16.90;97.00;;;;;;5032059;28;20021;-66
2021/08/08 07:19:42;;;;;;;8.68;3.10;;;16.90;97.00;;;;;;5031762;28;20095;-66
2021/08/08 07:22:08;;;;;;;14.73;3.42;;;16.90;97.00;;;;;;5031928;28;20022;-66
2021/08/08 07:24:34;;;;;;;8.43;2.90;;;17.00;96.80;;;;;;5032086;28;20057;-66
2021/08/08 07:27:00;;;;;;;10.38;2.92;;;17.10;96.40;;;;;;5031778;28;20111;-65
2021/08/08 07:29:25;;;;;;;7.25;2.53;;;17.20;96.40;;;;;;5032093;28;20480;-66
2021/08/08 07:32:21;;;;;;;;;;;;;;;;;;;;;
2021/08/08 07:34:47;;;;;;;11.85;2.88;;;17.30;96.20;;;;;;5031929;28;20469;-66
2021/08/08 07:37:13;;;;;;;11.35;3.47;;;17.20;95.70;;;;;;5031720;28;20121;-66
2021/08/08 07:39:38;;;;;;;10.00;3.20;;;17.30;95.50;;;;;;5032224;28;20382;-66
2021/08/08 07:42:04;;;;;;;14.13;3.58;;;17.30;95.40;;;;;;5030768;28;20041;-66
2021/08/08 07:44:30;;;;;;;9.55;2.80;;;17.30;94.90;;;;;;5031001;28;20022;-67
2021/08/08 07:46:56;;;;;;;13.23;3.53;;;17.40;94.80;;;;;;5031900;28;20491;-66
2021/08/08 07:49:21;;;;;;;12.50;3.05;;;17.40;94.40;;;;;;5032322;28;20033;-66
2021/08/08 07:51:47;;;;;;;8.07;2.80;;;17.40;94.40;;;;;;5032089;28;20100;-67
2021/08/08 07:54:12;;;;;;;14.85;3.05;;;17.50;94.00;;;;;;5032156;28;20117;-66
2021/08/08 07:56:38;;;;;;;10.07;2.63;;;17.50;94.00;;;;;;5032255;28;20083;-66
2021/08/08 08:02:36;;;;;;;11.25;2.90;;;17.60;93.60;;;;;;5001309;28;20566;-67
2021/08/08 08:05:02;;;;;;;9.18;2.28;;;17.60;93.60;;;;;;5036042;28;20029;-66
2021/08/08 08:07:34;;;;;;;9.90;2.75;;;17.70;93.70;;;;;;5035861;28;20025;-66
2021/08/08 08:10:33;;;;;;;;;;;;;;;;;;;;;
2021/08/08 08:13:02;;;;;;;6.30;2.58;;;17.80;93.20;;;;;;5034879;28;20028;-66
2021/08/08 08:15:28;;;;;;;8.77;2.67;;;17.70;93.40;;;;;;5035232;28;20100;-66
2021/08/08 08:17:57;;;;;;;8.32;2.67;;;17.80;93.20;;;;;;5022741;28;20109;-66
2021/08/08 08:21:06;;;;;;;;;;;;;;;;;;;;;
2021/08/08 08:24:15;;;;;;;;;;;;;;;;;;;;;
2021/08/08 08:26:41;;;;;;;8.88;2.88;;;17.90;92.40;;;;;;5031009;28;20025;-67
2021/08/08 08:29:07;;;;;;;8.30;2.38;;;17.90;92.50;;;;;;5035138;28;20096;-66
2021/08/08 08:31:33;;;;;;;8.63;3.13;;;18.00;92.40;;;;;;5030187;28;20373;-66
2021/08/08 08:33:59;;;;;;;6.28;1.98;;;18.00;92.20;;;;;;5019621;28;20048;-66
2021/08/08 08:36:24;;;;;;;11.38;2.83;;;18.10;92.20;;;;;;5007014;28;20037;-66
2021/08/08 08:38:50;;;;;;;12.93;3.25;;;18.10;92.10;;;;;;5008656;28;20037;-66
2021/08/08 08:41:16;;;;;;;8.43;2.70;;;18.10;92.00;;;;;;5017975;28;20033;-66
2021/08/08 08:43:45;;;;;;;11.70;3.13;;;18.10;92.10;;;;;;5006029;28;20040;-66
2021/08/08 08:46:11;;;;;;;9.80;2.78;;;18.10;91.60;;;;;;5021442;28;20100;-66
2021/08/08 08:48:38;;;;;;;7.35;2.60;;;18.10;91.30;;;;;;5033390;28;20028;-66
2021/08/08 08:51:05;;;;;;;7.85;2.88;;;18.10;91.20;;;;;;5034398;28;20025;-66
2021/08/08 08:53:31;;;;;;;11.60;3.08;;;18.20;91.40;;;;;;5034173;28;20026;-66
2021/08/08 08:56:01;;;;;;;8.05;2.08;;;18.30;91.20;;;;;;5034472;28;20492;-66
2021/08/08 08:58:26;;;;;;;;;;;18.30;90.40;;;;;;5034834;28;20017;-66
2021/08/08 09:00:52;;;;;;;6.50;3.03;;;18.30;90.50;;;;;;5034083;28;20268;-66
2021/08/08 09:03:18;;;;;;;6.28;2.38;;;18.40;90.50;;;;;;5034498;28;20045;-66
2021/08/08 09:05:43;;;;;;;8.82;2.30;;;18.50;90.40;;;;;;5032962;28;20049;-66
2021/08/08 09:08:09;;;;;;;5.90;2.22;;;18.60;90.30;;;;;;5034206;28;20026;-66
2021/08/08 09:10:36;;;;;;;8.65;2.60;;;18.60;90.50;;;;;;5032966;28;20017;-66
2021/08/08 09:13:03;;;;;;;6.00;2.10;;;18.70;90.10;;;;;;5034600;28;20120;-66
2021/08/08 09:15:38;;;;;;;9.10;2.72;;;18.70;88.70;;;;;;5034962;28;20392;-66
2021/08/08 09:18:14;;;;;;;7.38;2.20;;;18.80;89.60;;;;;;5033724;28;20026;-66
2021/08/08 09:20:41;;;;;;;10.05;2.53;;;18.90;88.00;;;;;;5033141;28;20459;-66
2021/08/08 09:23:07;;;;;;;13.18;2.67;;;18.90;88.10;;;;;;5034090;28;20092;-66
2021/08/08 09:25:33;;;;;;;7.97;2.40;;;19.00;88.30;;;;;;5032857;28;20105;-66
2021/08/08 09:28:09;;;;;;;10.52;3.20;;;19.00;88.10;;;;;;5033880;28;20494;-66
2021/08/08 09:30:39;;;;;;;10.63;2.38;;;18.90;86.70;;;;;;5034752;28;20021;-66
2021/08/08 09:33:09;;;;;;;9.90;2.65;;;18.80;87.60;;;;;;5034747;28;20032;-66
2021/08/08 09:35:35;;;;;;;;;;;18.80;88.60;;;;;;5035094;28;20034;-66
2021/08/08 09:38:03;;;;;;;7.60;1.98;;;18.90;89.00;;;;;;5034472;28;20279;-66
2021/08/08 09:40:31;;;;;;;9.70;2.45;;;19.00;88.90;;;;;;5034423;28;20038;-66
2021/08/08 09:42:58;;;;;;;7.15;2.10;;;19.00;87.20;;;;;;5034548;28;20520;-66
2021/08/08 09:45:38;;;;;;;5.10;1.95;;;19.10;87.10;;;;;;5034490;28;20053;-66
2021/08/08 09:48:04;;;;;;;6.07;1.75;;;19.10;86.40;;;;;;5034451;28;20509;-66
2021/08/08 09:50:32;;;;;;;9.82;2.15;;;19.00;87.00;;;;;;5034341;28;20481;-66
2021/08/08 09:53:03;;;;;;;7.03;1.83;;;19.00;86.60;;;;;;5034045;28;20401;-66
2021/08/08 09:55:39;;;;;;;9.07;2.08;;;19.00;86.60;;;;;;5034371;28;20036;-66
2021/08/08 09:58:22;;;;;;;8.60;2.20;;;19.00;86.50;;;;;;5034223;28;20018;-66
2021/08/08 10:00:48;;;;;;;7.97;1.90;;;19.00;85.90;;;;;;5034120;28;20017;-66
2021/08/08 10:03:15;;;;;;;6.30;1.77;;;18.90;86.10;;;;;;5033370;28;20024;-66
2021/08/08 10:05:45;;;;;;;6.57;1.70;;;18.90;86.40;;;;;;5033440;28;20478;-66
2021/08/08 10:08:19;;;;;;;5.90;2.22;;;19.00;86.40;;;;;;5032160;28;20033;-66
2021/08/08 10:10:47;;;;;;;9.75;2.13;;;19.10;86.60;;;;;;5033316;28;20024;-66
2021/08/08 10:13:35;;;;;;;6.78;1.88;;;19.10;86.50;;;;;;5033613;28;20436;-66
2021/08/08 10:16:02;;;;;;;12.02;2.10;;;19.40;86.80;;;;;;5033800;28;20464;-66
2021/08/08 10:18:38;;;;;;;7.53;2.20;;;19.40;85.00;;;;;;5032615;28;20021;-66
2021/08/08 10:21:05;;;;;;;6.30;2.03;;;19.50;84.90;;;;;;5033282;28;20032;-66
2021/08/08 10:23:32;;;;;;;6.18;1.80;;;19.40;84.70;;;;;;5032345;28;20108;-66
2021/08/08 10:25:57;;;;;;;6.88;2.53;;;19.40;84.60;;;;;;5033657;28;20029;-66
2021/08/08 10:28:23;;;;;;;7.78;2.55;;;19.30;85.10;;;;;;5033571;28;20482;-66
2021/08/08 10:30:49;;;;;;;6.88;2.08;;;19.20;84.90;;;;;;5032727;28;20031;-66
2021/08/08 10:33:15;;;;;;;11.98;2.47;;;19.00;85.50;;;;;;5033533;28;20481;-66
2021/08/08 10:35:43;;;;;;;9.40;2.67;;;19.00;85.60;;;;;;5033493;28;20037;-66
2021/08/08 10:38:09;;;;;;;8.98;2.38;;;19.10;85.40;;;;;;5033279;28;20026;-67
2021/08/08 10:40:37;;;;;;;8.57;2.25;;;19.10;85.10;;;;;;5033188;28;20048;-66
2021/08/08 10:43:04;;;;;;;6.95;1.50;;;19.20;85.00;;;;;;5033284;28;20022;-66
2021/08/08 10:45:32;;;;;;;7.10;2.22;;;19.30;85.60;;;;;;5033264;28;20036;-66
2021/08/08 10:48:00;;;;;;;6.07;1.88;;;19.40;85.60;;;;;;5033364;28;20025;-66
2021/08/08 10:50:45;;;;;;;9.05;2.28;;;19.40;84.80;;;;;;5033256;28;20074;-66
2021/08/08 10:53:22;;;;;;;7.70;1.90;;;19.50;84.60;;;;;;5032470;28;20080;-66
2021/08/08 10:56:08;;;;;;;9.23;2.35;;;19.60;84.20;;;;;;5033106;28;20079;-67
2021/08/08 10:58:37;;;;;;;6.80;2.10;;;19.60;83.00;;;;;;5031401;28;20084;-66
2021/08/08 11:01:20;;;;;;;6.15;1.50;;;19.60;83.70;;;;;;5031822;28;20060;-66
2021/08/08 11:03:56;;;;;;;7.20;1.60;;;19.80;83.30;;;;;;5033084;28;20018;-66
2021/08/08 11:06:29;;;;;;;6.95;1.98;;;19.80;82.40;;;;;;5031821;28;20017;-66
2021/08/08 11:08:57;;;;;;;5.95;1.50;;;19.80;82.80;;;;;;5033065;28;20084;-66
2021/08/08 11:11:34;;;;;;;5.78;1.58;;;19.80;83.70;;;;;;5032817;28;20477;-66
2021/08/08 11:14:12;;;;;;;4.97;1.60;;;19.80;82.40;;;;;;5033016;28;20098;-66
2021/08/08 11:16:38;;;;;;;8.77;2.10;;;19.80;81.80;;;;;;5032616;28;20084;-66
2021/08/08 11:19:04;;;;;;;5.57;1.10;;;19.60;81.50;;;;;;5032340;28;20025;-66
2021/08/08 11:21:30;;;;;;;8.18;1.70;;;19.50;81.50;;;;;;5032428;28;20033;-66
2021/08/08 11:23:59;;;;;;;9.35;2.13;;;19.70;82.00;;;;;;5032847;28;20109;-66
2021/08/08 11:26:25;;;;;;;5.78;1.65;;;19.70;81.80;;;;;;5031438;28;20029;-66
2021/08/08 11:28:59;;;;;;;6.28;1.52;;;19.60;81.20;;;;;;5032303;28;20036;-66
2021/08/08 11:31:31;;;;;;;6.95;2.10;;;19.60;81.90;;;;;;5032327;28;20029;-66
2021/08/08 11:34:23;;;;;;;12.25;2.28;;;19.70;80.90;;;;;;5036763;28;20017;-66
2021/08/08 11:36:48;;;;;;;5.22;1.42;;;19.80;81.20;;;;;;5036994;28;20025;-66
2021/08/08 11:39:14;;;;;;;5.68;1.52;;;19.90;80.60;;;;;;5036579;28;20516;-66
2021/08/08 11:41:41;;;;;;;8.35;1.52;;;20.10;80.40;;;;;;5036119;28;20029;-66
2021/08/08 11:44:14;;;;;;;5.07;1.25;;;20.20;79.70;;;;;;5036626;28;20021;-66
2021/08/08 11:46:50;;;;;;;6.15;1.27;;;20.30;79.60;;;;;;5036565;28;20022;-66
2021/08/08 11:49:21;;;;;;;10.00;1.90;;;20.30;79.00;;;;;;5036687;28;20126;-66
2021/08/08 11:52:04;;;;;;;6.00;1.42;;;20.30;79.00;;;;;;5035152;28;20185;-66
2021/08/08 11:54:32;;;;;;;8.88;2.05;;;20.40;79.00;;;;;;5036610;28;20547;-66
2021/08/08 11:56:59;;;;;;;4.75;1.35;;;20.30;79.00;;;;;;5036366;28;20037;-66
2021/08/08 11:59:30;;;;;;;7.35;1.50;;;20.20;79.70;;;;;;5034312;28;20088;-67
2021/08/08 12:02:07;;;;;;;6.30;1.88;;;20.00;79.70;;;;;;5035533;28;20060;-66
2021/08/08 12:04:35;;;;;;;5.80;1.55;;;19.90;79.90;;;;;;5033444;28;21308;-66
2021/08/08 12:07:05;;;;;;;7.38;1.60;;;19.70;81.10;;;;;;5033881;28;20028;-67
2021/08/08 12:09:31;;;;;;;6.63;1.77;;;19.50;84.40;;;;;;5034785;28;20016;-67
2021/08/08 12:11:58;;;;;;;10.40;2.70;;;18.90;88.90;;;;;;5034321;28;20485;-67
2021/08/08 12:14:35;;;;;;;9.23;2.58;;;18.40;91.60;;;;;;5034407;28;20029;-66
2021/08/08 12:17:15;;;;;;;7.55;1.98;;;18.00;92.90;;;;;;5034727;28;20018;-66
2021/08/08 12:19:43;;;;;;;5.72;2.22;;;17.90;94.00;;;;;;5034672;28;20021;-66
2021/08/08 12:22:13;;;;;;;5.50;1.75;;;18.00;94.40;;;;;;5033939;28;20029;-66
2021/08/08 12:25:00;;;;;;;4.65;1.30;;;18.30;94.30;;;;;;5034718;28;20469;-66
2021/08/08 12:27:33;;;;;;;7.15;1.60;;;18.60;94.30;;;;;;5033754;28;20064;-66
2021/08/08 12:30:00;;;;;;;4.13;1.20;;;19.00;93.90;;;;;;5034185;28;20477;-66
2021/08/08 12:32:32;;;;;;;2.47;1.17;;;19.00;92.70;;;;;;5033104;28;20040;-66
2021/08/08 12:35:11;;;;;;;5.85;1.77;;;19.30;92.90;;;;;;5034145;28;20024;-66
2021/08/08 12:37:43;;;;;;;7.93;1.70;;;19.50;92.80;;;;;;5032528;28;20441;-66
2021/08/08 12:40:17;;;;;;;8.00;1.73;;;19.60;91.50;;;;;;5032967;28;20402;-66
2021/08/08 12:42:44;;;;;;;5.10;1.60;;;19.60;91.40;;;;;;5032478;28;20029;-66
2021/08/08 12:45:18;;;;;;;6.22;1.67;;;19.70;91.50;;;;;;5033884;28;20100;-66
2021/08/08 12:47:46;;;;;;;5.50;2.08;;;19.90;91.10;;;;;;5031683;28;20030;-66
2021/08/08 12:50:20;;;;;;;5.15;1.70;;;20.10;90.70;;;;;;5033431;28;20022;-66
2021/08/08 12:52:47;;;;;;;3.92;1.23;;;20.30;90.10;;;;;;5034475;28;20032;-66
2021/08/08 12:55:13;;;;;;;5.90;1.77;;;20.40;89.70;;;;;;5034843;28;20029;-66
2021/08/08 12:57:48;;;;;;;4.50;1.58;;;20.40;87.70;;;;;;5033332;28;20025;-66
2021/08/08 13:00:16;;;;;;;6.80;1.75;;;20.40;86.00;;;;;;5035008;28;20036;-66
2021/08/08 13:02:52;;;;;;;5.22;1.20;;;20.50;83.10;;;;;;5034377;28;20036;-67
2021/08/08 13:05:19;;;;;;;2.95;1.13;;;20.60;81.20;;;;;;5034371;28;20022;-66